Time;durP1;ratioP1;P1;durP2;ratioP2;P2;SDS_P1;SDS_P2;PMS_P1;PMS_P2;Temp;Humidity;BMP_temperature;BMP_pressure;BME280_temperature;BME280_humidity;BME280_pressure;Samples;Min_cycle;Max_cycle;Signal;HPM_P1;HPM_P2
2022/07/22 00:00:15;;;;;;;4.87;2.80;;;26.70;64.80;;;;;;5044669;28;20210;-77
2022/07/22 00:02:42;;;;;;;4.70;3.10;;;26.70;65.10;;;;;;5045591;28;20253;-77
2022/07/22 00:05:10;;;;;;;2.50;2.40;;;26.60;65.10;;;;;;5041535;28;20209;-77
2022/07/22 00:07:38;;;;;;;8.00;3.33;;;26.70;65.50;;;;;;5048727;28;20204;-77
2022/07/22 00:10:08;;;;;;;3.77;3.30;;;26.70;65.60;;;;;;5042366;28;20218;-77
2022/07/22 00:12:35;;;;;;;7.57;3.40;;;26.60;66.00;;;;;;5052445;28;20417;-77
2022/07/22 00:15:02;;;;;;;5.10;3.70;;;26.70;66.40;;;;;;5044058;28;20194;-77
2022/07/22 00:17:29;;;;;;;6.17;3.63;;;26.60;66.80;;;;;;5043905;28;20215;-77
2022/07/22 00:19:57;;;;;;;13.10;3.93;;;26.60;67.70;;;;;;5042899;28;20227;-77
2022/07/22 00:22:24;;;;;;;18.63;4.40;;;26.60;67.30;;;;;;5043160;28;20213;-77
2022/07/22 00:24:51;;;;;;;12.70;3.83;;;26.60;67.70;;;;;;5047321;28;20271;-77
2022/07/22 00:27:18;;;;;;;12.97;4.00;;;26.50;67.80;;;;;;5042359;28;20259;-77
2022/07/22 00:29:45;;;;;;;10.57;3.53;;;26.50;68.10;;;;;;5076588;28;20204;-77
2022/07/22 00:32:12;;;;;;;9.93;3.77;;;26.60;68.40;;;;;;5046072;28;20206;-77
2022/07/22 00:34:39;;;;;;;4.90;3.17;;;26.50;68.60;;;;;;5042614;28;20291;-77
2022/07/22 00:37:06;;;;;;;7.20;3.97;;;26.50;68.90;;;;;;5043205;28;20214;-77
2022/07/22 00:39:34;;;;;;;5.90;3.63;;;26.50;69.10;;;;;;5043776;28;20259;-78
2022/07/22 00:42:02;;;;;;;7.03;3.67;;;26.50;69.80;;;;;;5044712;28;20203;-77
2022/07/22 00:44:29;;;;;;;4.03;3.63;;;26.50;70.50;;;;;;5071951;28;20218;-77
2022/07/22 00:47:04;;;;;;;4.63;4.07;;;26.50;70.60;;;;;;5044800;28;20280;-77
2022/07/22 00:49:31;;;;;;;6.03;4.00;;;26.40;70.70;;;;;;5049125;28;20205;-77
2022/07/22 00:51:59;;;;;;;9.17;3.97;;;26.40;71.60;;;;;;5043803;28;20243;-77
2022/07/22 00:54:26;;;;;;;9.43;4.23;;;26.50;71.20;;;;;;5046140;28;20214;-77
2022/07/22 00:56:55;;;;;;;8.27;4.13;;;26.40;71.20;;;;;;5041772;28;20203;-77
2022/07/22 00:59:22;;;;;;;7.70;4.10;;;26.40;71.20;;;;;;5048213;28;20615;-78
2022/07/22 01:01:49;;;;;;;6.67;4.00;;;26.40;71.30;;;;;;5043810;28;20200;-78
2022/07/22 01:04:17;;;;;;;7.00;4.93;;;26.40;71.70;;;;;;5048222;28;20212;-78
2022/07/22 01:06:44;;;;;;;7.53;4.27;;;26.40;71.90;;;;;;5051423;28;20304;-78
2022/07/22 01:09:13;;;;;;;4.27;3.53;;;26.40;72.00;;;;;;5028474;28;20513;-78
2022/07/22 01:11:41;;;;;;;7.43;3.90;;;26.40;71.90;;;;;;5048143;28;20448;-78
2022/07/22 01:14:09;;;;;;;5.60;4.00;;;26.40;72.10;;;;;;5044049;28;20655;-77
2022/07/22 01:16:36;;;;;;;7.07;5.27;;;26.40;72.40;;;;;;5048395;28;20194;-77
2022/07/22 01:19:04;;;;;;;4.77;4.00;;;26.30;72.40;;;;;;5052146;28;20222;-77
2022/07/22 01:21:31;;;;;;;6.47;4.47;;;26.30;72.30;;;;;;5044804;28;20220;-77
2022/07/22 01:24:00;;;;;;;5.57;3.90;;;26.30;72.50;;;;;;5049188;28;20211;-77
2022/07/22 01:26:28;;;;;;;5.00;3.97;;;26.20;72.30;;;;;;5044738;28;20235;-77
2022/07/22 01:28:55;;;;;;;4.53;3.73;;;26.20;72.10;;;;;;5024087;28;20242;-77
2022/07/22 01:31:23;;;;;;;4.57;3.90;;;26.20;72.30;;;;;;5030903;28;20207;-77
2022/07/22 01:33:50;;;;;;;7.73;4.50;;;26.10;72.80;;;;;;5048740;28;20325;-77
2022/07/22 01:36:18;;;;;;;6.53;4.23;;;26.10;73.00;;;;;;5049537;28;20207;-77
2022/07/22 01:38:45;;;;;;;4.63;4.17;;;26.10;73.20;;;;;;5044993;28;20631;-78
2022/07/22 01:41:13;;;;;;;7.63;5.83;;;26.10;73.50;;;;;;5043198;28;20219;-77
2022/07/22 01:43:40;;;;;;;7.90;4.73;;;26.10;73.80;;;;;;5045369;28;20271;-77
2022/07/22 01:46:07;;;;;;;5.93;4.47;;;26.00;74.00;;;;;;5039233;28;20228;-77
2022/07/22 01:48:39;;;;;;;7.53;4.80;;;26.00;74.10;;;;;;5039891;28;20216;-77
2022/07/22 01:51:06;;;;;;;7.80;4.93;;;26.00;74.20;;;;;;5040420;28;20217;-77
2022/07/22 01:53:35;;;;;;;9.90;4.87;;;26.00;74.20;;;;;;5045522;28;20224;-77
2022/07/22 01:56:03;;;;;;;9.27;4.83;;;26.00;74.20;;;;;;5041803;28;20213;-77
2022/07/22 01:58:35;;;;;;;4.63;4.20;;;26.00;74.10;;;;;;5044706;28;20549;-77
2022/07/22 02:01:08;;;;;;;5.90;4.47;;;25.90;74.00;;;;;;5030910;28;20274;-77
2022/07/22 02:03:36;;;;;;;10.43;5.37;;;25.90;74.00;;;;;;5047072;28;20259;-77
2022/07/22 02:06:05;;;;;;;5.57;4.50;;;25.90;74.20;;;;;;5039693;28;20222;-77
2022/07/22 02:08:33;;;;;;;6.83;5.67;;;25.90;74.40;;;;;;5025004;28;20651;-77
2022/07/22 02:11:13;;;;;;;8.30;4.37;;;25.80;74.50;;;;;;5039873;28;20672;-77
2022/07/22 02:13:55;;;;;;;8.73;5.60;;;25.80;74.70;;;;;;5037987;28;20439;-78
2022/07/22 02:16:24;;;;;;;6.80;5.10;;;25.80;75.00;;;;;;5041516;28;20219;-77
2022/07/22 02:18:52;;;;;;;8.60;5.63;;;25.80;75.20;;;;;;5038960;28;20542;-77
2022/07/22 02:21:20;;;;;;;7.60;5.40;;;25.80;75.30;;;;;;5044367;28;20253;-77
2022/07/22 02:23:50;;;;;;;9.83;6.10;;;25.80;75.50;;;;;;5045490;28;20211;-77
2022/07/22 02:26:18;;;;;;;5.63;5.13;;;25.70;75.60;;;;;;5044771;28;20689;-78
2022/07/22 02:28:45;;;;;;;6.23;5.13;;;25.70;75.50;;;;;;5046626;28;20234;-78
2022/07/22 02:31:13;;;;;;;8.70;5.00;;;25.70;75.20;;;;;;5038625;28;20215;-78
2022/07/22 02:33:40;;;;;;;9.37;5.60;;;25.60;75.00;;;;;;5047948;28;20600;-77
2022/07/22 02:36:08;;;;;;;14.10;6.07;;;25.60;75.20;;;;;;5051100;28;20203;-77
2022/07/22 02:38:36;;;;;;;8.63;5.60;;;25.60;75.50;;;;;;5028458;28;20206;-77
2022/07/22 02:41:03;;;;;;;6.00;5.43;;;25.60;75.80;;;;;;5040535;28;20209;-77
2022/07/22 02:43:33;;;;;;;7.33;4.87;;;25.50;75.80;;;;;;5046534;28;20206;-77
2022/07/22 02:46:00;;;;;;;10.70;5.83;;;25.50;75.70;;;;;;5041603;28;20277;-77
2022/07/22 02:48:27;;;;;;;5.77;5.20;;;25.50;75.80;;;;;;5046816;28;20210;-77
2022/07/22 02:50:55;;;;;;;5.77;5.13;;;25.50;75.80;;;;;;5050540;28;20203;-77
2022/07/22 02:53:25;;;;;;;6.13;4.43;;;25.40;75.30;;;;;;5042117;28;20205;-78
2022/07/22 02:55:52;;;;;;;9.37;5.87;;;25.40;74.80;;;;;;5046798;28;20202;-78
2022/07/22 02:58:19;;;;;;;6.77;5.77;;;25.30;75.00;;;;;;5043528;28;20213;-78
2022/07/22 03:00:46;;;;;;;6.97;6.33;;;25.20;75.50;;;;;;5044115;28;20662;-77
2022/07/22 03:03:14;;;;;;;6.90;5.13;;;25.20;76.30;;;;;;5037309;28;20214;-77
2022/07/22 03:05:41;;;;;;;7.50;6.03;;;25.20;76.60;;;;;;5047762;28;20244;-77
2022/07/22 03:08:31;;;;;;;9.03;6.13;;;25.10;77.00;;;;;;5047407;28;20781;-78
2022/07/22 03:10:59;;;;;;;6.17;5.67;;;25.10;77.70;;;;;;5042868;28;20297;-78
2022/07/22 03:13:26;;;;;;;6.17;5.57;;;25.10;77.10;;;;;;5040708;28;20262;-77
2022/07/22 03:15:53;;;;;;;7.67;6.57;;;25.00;77.00;;;;;;5023713;28;20348;-77
2022/07/22 03:18:21;;;;;;;7.47;6.77;;;25.00;77.30;;;;;;5041438;28;20264;-77
2022/07/22 03:20:48;;;;;;;8.33;7.27;;;25.00;77.60;;;;;;5039739;28;20215;-78
2022/07/22 03:23:16;;;;;;;9.13;7.40;;;25.00;78.10;;;;;;5023362;28;20268;-77
2022/07/22 03:25:43;;;;;;;12.50;6.90;;;25.00;78.50;;;;;;5039247;28;20204;-77
2022/07/22 03:28:10;;;;;;;8.17;7.30;;;25.00;78.70;;;;;;5042115;28;20652;-77
2022/07/22 03:30:38;;;;;;;8.67;7.93;;;24.90;79.30;;;;;;5044100;28;20214;-77
2022/07/22 03:33:05;;;;;;;8.77;7.50;;;25.00;79.00;;;;;;5034851;28;20658;-77
2022/07/22 03:35:37;;;;;;;9.53;7.10;;;25.00;79.10;;;;;;5045635;28;20677;-77
2022/07/22 03:38:04;;;;;;;9.53;7.30;;;25.00;79.00;;;;;;5046380;28;20199;-77
2022/07/22 03:40:31;;;;;;;11.00;6.17;;;24.90;78.90;;;;;;5041667;28;20218;-77
2022/07/22 03:42:59;;;;;;;7.53;6.97;;;25.00;78.90;;;;;;5033234;28;20200;-77
2022/07/22 03:45:26;;;;;;;10.63;6.93;;;24.90;78.50;;;;;;5031860;28;20215;-77
2022/07/22 03:47:54;;;;;;;7.10;6.43;;;24.90;78.40;;;;;;5046829;28;20202;-77
2022/07/22 03:50:24;;;;;;;8.17;6.20;;;24.90;78.10;;;;;;5049537;28;20212;-77
2022/07/22 03:52:52;;;;;;;8.83;5.97;;;24.80;77.70;;;;;;5042455;28;20647;-77
2022/07/22 03:55:19;;;;;;;6.80;6.20;;;24.80;77.50;;;;;;5049704;28;20554;-77
2022/07/22 03:57:50;;;;;;;8.07;5.73;;;24.80;77.80;;;;;;5039331;28;20230;-77
2022/07/22 04:00:24;;;;;;;6.73;6.20;;;24.70;78.00;;;;;;5039490;28;20216;-78
2022/07/22 04:02:52;;;;;;;7.17;6.50;;;24.70;78.20;;;;;;5050413;28;20604;-78
2022/07/22 04:05:42;;;;;;;6.47;5.97;;;24.70;78.40;;;;;;5048694;28;20298;-77
2022/07/22 04:08:10;;;;;;;8.73;6.60;;;24.70;78.40;;;;;;5042035;28;20647;-77
2022/07/22 04:10:37;;;;;;;8.87;6.40;;;24.60;78.30;;;;;;5037483;28;20700;-77
2022/07/22 04:13:04;;;;;;;6.23;5.70;;;24.60;78.10;;;;;;5053391;28;20203;-77
2022/07/22 04:15:54;;;;;;;7.53;5.73;;;24.60;77.90;;;;;;5044807;28;20269;-77
2022/07/22 04:18:22;;;;;;;7.20;6.50;;;24.60;77.80;;;;;;5050280;28;20534;-77
2022/07/22 04:20:49;;;;;;;7.90;6.70;;;24.60;78.00;;;;;;5047173;28;20215;-77
2022/07/22 04:23:20;;;;;;;12.90;6.37;;;24.50;78.20;;;;;;5048372;28;20729;-77
2022/07/22 04:25:52;;;;;;;6.90;5.90;;;24.50;78.30;;;;;;5044064;28;20211;-77
2022/07/22 04:28:19;;;;;;;15.53;6.57;;;24.50;78.40;;;;;;5044666;28;20643;-77
2022/07/22 04:30:46;;;;;;;10.20;6.40;;;24.50;78.70;;;;;;5046902;28;20586;-77
2022/07/22 04:33:13;;;;;;;7.03;6.43;;;24.50;78.60;;;;;;5044811;28;20188;-77
2022/07/22 04:35:41;;;;;;;7.00;6.30;;;24.60;77.90;;;;;;5043877;28;20848;-77
2022/07/22 04:38:17;;;;;;;8.07;6.73;;;24.60;77.60;;;;;;5039284;28;20207;-77
2022/07/22 04:40:54;;;;;;;8.43;7.37;;;24.60;77.90;;;;;;5063284;28;20615;-77
2022/07/22 04:43:23;;;;;;;6.90;6.33;;;24.60;77.90;;;;;;5044071;28;20230;-77
2022/07/22 04:45:50;;;;;;;8.67;7.33;;;24.70;77.90;;;;;;5044051;28;20621;-77
2022/07/22 04:48:18;;;;;;;8.70;7.07;;;24.70;77.90;;;;;;5044608;28;20541;-77
2022/07/22 04:50:47;;;;;;;7.50;6.73;;;24.80;78.20;;;;;;5041210;28;20203;-77
2022/07/22 04:53:14;;;;;;;7.47;6.83;;;24.90;78.30;;;;;;5043711;28;20238;-77
2022/07/22 04:55:42;;;;;;;9.43;6.67;;;24.90;78.30;;;;;;5038805;28;20231;-77
2022/07/22 04:58:09;;;;;;;7.23;6.47;;;25.00;78.30;;;;;;5043010;28;20215;-77
2022/07/22 05:00:44;;;;;;;8.57;7.67;;;25.00;78.20;;;;;;5043533;28;20202;-77
2022/07/22 05:03:11;;;;;;;9.60;8.37;;;25.10;78.00;;;;;;5041340;28;20207;-77
2022/07/22 05:05:40;;;;;;;7.97;7.23;;;25.20;78.10;;;;;;5044081;28;20219;-77
2022/07/22 05:08:08;;;;;;;9.60;7.13;;;25.30;78.40;;;;;;5048337;28;20240;-77
2022/07/22 05:10:36;;;;;;;8.83;8.03;;;25.40;78.70;;;;;;5042334;28;20210;-77
2022/07/22 05:13:04;;;;;;;8.00;7.40;;;25.50;78.80;;;;;;5044112;28;20628;-77
2022/07/22 05:15:33;;;;;;;8.33;7.40;;;25.60;78.80;;;;;;5044498;28;20234;-77
2022/07/22 05:18:00;;;;;;;8.17;7.40;;;25.60;78.70;;;;;;5044553;28;20566;-77
2022/07/22 05:20:30;;;;;;;8.57;7.70;;;25.70;78.50;;;;;;5042302;28;20217;-77
2022/07/22 05:22:58;;;;;;;8.47;7.77;;;25.90;78.40;;;;;;5041252;28;20572;-77
2022/07/22 05:25:30;;;;;;;12.00;8.90;;;26.00;78.10;;;;;;5034812;28;20209;-77
2022/07/22 05:27:57;;;;;;;11.33;10.23;;;26.10;77.80;;;;;;5033261;28;20275;-77
2022/07/22 05:30:33;;;;;;;8.93;7.70;;;26.30;77.80;;;;;;5045842;28;20210;-77
2022/07/22 05:33:02;;;;;;;9.77;9.03;;;26.40;77.60;;;;;;5047756;28;20612;-77
2022/07/22 05:35:49;;;;;;;9.33;8.40;;;26.50;77.20;;;;;;5042420;28;20238;-77
2022/07/22 05:38:18;;;;;;;9.90;8.90;;;26.70;76.60;;;;;;5043047;28;20206;-77
2022/07/22 05:40:46;;;;;;;9.93;8.93;;;26.80;76.00;;;;;;5047530;28;20203;-77
2022/07/22 05:43:13;;;;;;;10.23;8.63;;;26.90;75.40;;;;;;5039082;28;20214;-77
2022/07/22 05:45:40;;;;;;;8.47;7.73;;;27.10;74.80;;;;;;5046526;28;20206;-77
2022/07/22 05:48:07;;;;;;;8.57;7.80;;;27.20;74.40;;;;;;5041761;28;20704;-77
2022/07/22 05:50:36;;;;;;;11.03;8.13;;;27.40;74.00;;;;;;5041024;28;20214;-77
2022/07/22 05:53:03;;;;;;;13.13;9.23;;;27.50;73.40;;;;;;5026401;28;20206;-77
2022/07/22 05:55:32;;;;;;;9.10;8.30;;;27.60;72.30;;;;;;5043791;28;20218;-77
2022/07/22 05:57:59;;;;;;;9.53;8.30;;;27.70;71.70;;;;;;5042387;28;20235;-77
2022/07/22 06:00:26;;;;;;;8.27;7.63;;;27.80;71.10;;;;;;5061133;28;20206;-77
2022/07/22 06:02:54;;;;;;;9.63;8.80;;;27.90;70.50;;;;;;5044409;28;20320;-78
2022/07/22 06:05:22;;;;;;;9.13;7.40;;;28.00;69.70;;;;;;5048282;28;20201;-78
2022/07/22 06:08:10;;;;;;;8.70;7.93;;;28.20;69.10;;;;;;5038322;28;20207;-78
2022/07/22 06:10:42;;;;;;;10.63;8.50;;;28.30;68.70;;;;;;5043261;28;20305;-77
2022/07/22 06:13:09;;;;;;;10.87;8.23;;;28.30;68.00;;;;;;5046142;28;20206;-77
2022/07/22 06:15:38;;;;;;;9.43;7.80;;;28.40;67.50;;;;;;5047093;28;20225;-77
2022/07/22 06:18:05;;;;;;;9.83;8.00;;;28.50;67.60;;;;;;5042040;28;20254;-77
2022/07/22 06:20:33;;;;;;;11.63;7.67;;;28.60;67.60;;;;;;5042088;28;20649;-77
2022/07/22 06:23:01;;;;;;;9.53;8.07;;;28.70;68.00;;;;;;5063707;28;20256;-77
2022/07/22 06:25:29;;;;;;;9.77;8.13;;;28.80;67.30;;;;;;5043454;28;20292;-77
2022/07/22 06:28:20;;;;;;;9.03;7.67;;;28.80;66.60;;;;;;5046918;28;20646;-77
2022/07/22 06:30:48;;;;;;;12.80;8.00;;;28.80;66.50;;;;;;5041546;28;20530;-78
2022/07/22 06:33:16;;;;;;;12.43;7.30;;;28.90;66.30;;;;;;5041918;28;20307;-77
2022/07/22 06:35:44;;;;;;;9.20;8.30;;;29.00;65.50;;;;;;5037706;28;20583;-78
2022/07/22 06:38:11;;;;;;;17.40;8.20;;;29.10;64.50;;;;;;5044189;28;20630;-78
2022/07/22 06:41:18;;;;;;;8.47;7.17;;;29.20;64.60;;;;;;5045162;28;20213;-77
2022/07/22 06:44:06;;;;;;;10.53;7.77;;;29.20;63.90;;;;;;5040031;28;20241;-77
2022/07/22 06:46:45;;;;;;;8.43;7.70;;;29.30;63.70;;;;;;5037441;28;20265;-78
2022/07/22 06:49:16;;;;;;;12.57;6.73;;;29.30;63.00;;;;;;5042666;28;20203;-78
2022/07/22 06:51:44;;;;;;;7.03;6.33;;;29.30;63.50;;;;;;5041285;28;20279;-78
2022/07/22 06:54:11;;;;;;;8.23;6.80;;;29.50;63.80;;;;;;5043032;28;20207;-77
2022/07/22 06:56:39;;;;;;;8.53;6.40;;;29.60;63.60;;;;;;5035025;28;20211;-77
2022/07/22 06:59:10;;;;;;;7.07;5.30;;;29.90;63.10;;;;;;5041772;28;20213;-77
2022/07/22 07:01:37;;;;;;;10.17;6.60;;;30.10;62.40;;;;;;5039691;28;20210;-77
2022/07/22 07:04:04;;;;;;;14.03;6.60;;;30.40;61.20;;;;;;5038942;28;20203;-77
2022/07/22 07:06:33;;;;;;;8.57;6.47;;;30.60;60.10;;;;;;5046102;28;20220;-77
2022/07/22 07:09:03;;;;;;;9.50;6.10;;;30.80;59.20;;;;;;5036998;28;20211;-77
2022/07/22 07:11:31;;;;;;;8.07;6.60;;;30.90;58.60;;;;;;5054738;28;20202;-77
2022/07/22 07:14:00;;;;;;;10.00;5.57;;;31.10;58.00;;;;;;5038749;28;20672;-77
2022/07/22 07:16:28;;;;;;;10.20;5.33;;;31.20;57.90;;;;;;5042955;28;20556;-78
2022/07/22 07:18:55;;;;;;;13.13;5.77;;;31.40;57.70;;;;;;5044570;28;20600;-77
2022/07/22 07:21:23;;;;;;;10.37;5.20;;;31.50;57.20;;;;;;5038764;28;20214;-77
2022/07/22 07:23:50;;;;;;;11.67;5.17;;;31.70;56.50;;;;;;5041498;28;20523;-77
2022/07/22 07:26:18;;;;;;;8.87;5.40;;;31.90;55.80;;;;;;5040922;28;20230;-77
2022/07/22 07:28:46;;;;;;;10.10;4.53;;;32.10;54.70;;;;;;5027561;28;20222;-77
2022/07/22 07:31:17;;;;;;;10.83;5.30;;;32.20;54.60;;;;;;5028730;28;20240;-77
2022/07/22 07:33:48;;;;;;;11.03;5.67;;;32.40;54.20;;;;;;5070226;28;20207;-77
2022/07/22 07:36:15;;;;;;;9.60;5.13;;;32.60;53.90;;;;;;5039453;28;20218;-77
2022/07/22 07:38:47;;;;;;;11.90;5.43;;;32.70;53.30;;;;;;5060360;28;20198;-78
2022/07/22 07:41:16;;;;;;;7.17;5.17;;;32.90;52.70;;;;;;5041849;28;20245;-76
2022/07/22 07:43:47;;;;;;;8.73;5.80;;;33.00;52.70;;;;;;5030157;28;20269;-75
2022/07/22 07:46:14;;;;;;;8.97;6.30;;;33.10;52.20;;;;;;5043173;28;20226;-76
2022/07/22 07:48:42;;;;;;;7.23;5.77;;;33.20;51.80;;;;;;5043479;28;20226;-75
2022/07/22 07:51:09;;;;;;;8.80;5.27;;;33.30;51.50;;;;;;5026063;28;20289;-76
2022/07/22 07:53:39;;;;;;;9.60;5.40;;;33.40;51.20;;;;;;5040045;28;20246;-76
2022/07/22 07:56:08;;;;;;;6.97;5.07;;;33.60;50.80;;;;;;5042280;28;20219;-76
2022/07/22 07:58:35;;;;;;;8.70;6.40;;;33.70;50.90;;;;;;5041088;28;20882;-76
2022/07/22 08:01:06;;;;;;;8.73;5.43;;;33.80;50.20;;;;;;5038029;28;20302;-75
2022/07/22 08:03:35;;;;;;;13.27;6.17;;;33.90;49.70;;;;;;5044100;28;20210;-76
2022/07/22 08:06:04;;;;;;;5.73;4.83;;;34.00;49.00;;;;;;5042163;28;20232;-76
2022/07/22 08:08:32;;;;;;;10.87;6.73;;;34.10;49.60;;;;;;5040672;28;20221;-76
2022/07/22 08:11:06;;;;;;;11.00;5.53;;;34.10;48.10;;;;;;5040428;28;20213;-76
2022/07/22 08:13:47;;;;;;;9.77;5.87;;;34.20;49.00;;;;;;5047448;28;20301;-76
2022/07/22 08:16:33;;;;;;;6.67;5.23;;;34.20;48.10;;;;;;5042555;28;20230;-76
2022/07/22 08:19:00;;;;;;;11.83;5.80;;;34.20;48.40;;;;;;5031945;28;20195;-76
2022/07/22 08:21:28;;;;;;;11.40;5.73;;;34.30;48.50;;;;;;5045778;28;20233;-76
2022/07/22 08:23:57;;;;;;;11.37;5.30;;;34.40;48.10;;;;;;5060915;28;20204;-76
2022/07/22 08:26:25;;;;;;;11.43;4.40;;;34.50;48.20;;;;;;5027737;28;20238;-75
2022/07/22 08:28:58;;;;;;;9.03;5.77;;;34.60;48.10;;;;;;5040595;28;20214;-76
2022/07/22 08:31:28;;;;;;;6.40;5.23;;;34.70;48.20;;;;;;5047277;28;20218;-76
2022/07/22 08:33:59;;;;;;;10.27;5.40;;;34.80;48.20;;;;;;5060218;28;20203;-76
2022/07/22 08:36:28;;;;;;;5.93;5.33;;;35.00;48.10;;;;;;5046470;28;20227;-76
2022/07/22 08:38:55;;;;;;;9.73;5.30;;;35.10;47.00;;;;;;5047891;28;20198;-72
2022/07/22 08:41:24;;;;;;;10.13;4.87;;;35.20;47.20;;;;;;5046922;28;20199;-73
2022/07/22 08:43:53;;;;;;;7.13;5.30;;;35.40;47.10;;;;;;5051337;28;20704;-73
2022/07/22 08:46:22;;;;;;;8.70;5.90;;;35.50;46.70;;;;;;5046367;28;20233;-73
2022/07/22 08:49:08;;;;;;;15.80;6.37;;;35.70;46.20;;;;;;5047069;28;20303;-73
2022/07/22 08:51:53;;;;;;;7.88;5.25;;;35.90;46.40;;;;;;5040974;28;20210;-73
2022/07/22 08:54:23;;;;;;;10.07;5.10;;;36.00;45.20;;;;;;5042194;28;20294;-73
2022/07/22 08:56:52;;;;;;;12.03;4.93;;;36.10;45.60;;;;;;5043559;28;20237;-73
2022/07/22 08:59:21;;;;;;;7.15;4.72;;;36.30;45.20;;;;;;5056735;28;20218;-74
2022/07/22 09:02:10;;;;;;;12.27;5.32;;;36.30;44.60;;;;;;5047000;28;20199;-74
2022/07/22 09:04:55;;;;;;;5.80;4.55;;;36.40;44.60;;;;;;5041161;28;20213;-74
2022/07/22 09:07:35;;;;;;;10.27;4.57;;;36.50;44.20;;;;;;5042538;28;20211;-73
2022/07/22 09:10:14;;;;;;;13.32;5.00;;;36.60;43.80;;;;;;5042125;28;20207;-74
2022/07/22 09:13:02;;;;;;;6.50;4.32;;;36.70;43.20;;;;;;5041881;28;20210;-73
2022/07/22 09:15:55;;;;;;;9.93;4.68;;;36.90;43.20;;;;;;5043559;28;20556;-73
2022/07/22 09:18:51;;;;;;;10.80;4.40;;;37.00;42.60;;;;;;5043044;28;20663;-73
2022/07/22 09:21:50;;;;;;;6.85;4.80;;;37.10;42.80;;;;;;5048906;28;20218;-76
2022/07/22 09:24:32;;;;;;;6.50;4.00;;;37.20;42.20;;;;;;5033330;28;20221;-75
2022/07/22 09:27:26;;;;;;;7.82;4.47;;;37.30;41.50;;;;;;5052214;28;20261;-72
2022/07/22 09:30:24;;;;;;;9.90;4.40;;;37.40;41.10;;;;;;5050482;28;20205;-72
2022/07/22 09:33:02;;;;;;;8.25;4.38;;;37.40;40.90;;;;;;5047917;28;20301;-72
2022/07/22 09:35:41;;;;;;;9.15;4.75;;;37.40;40.60;;;;;;5046200;28;20483;-70
2022/07/22 09:38:19;;;;;;;8.38;4.93;;;37.50;40.30;;;;;;5043467;28;20202;-72
2022/07/22 09:40:48;;;;;;;5.75;4.97;;;37.60;40.60;;;;;;5032983;28;20222;-72
2022/07/22 09:43:18;;;;;;;7.13;4.75;;;37.60;40.20;;;;;;5044681;28;20191;-72
2022/07/22 09:45:49;;;;;;;8.50;4.35;;;37.70;39.60;;;;;;5072102;28;20297;-72
2022/07/22 09:48:21;;;;;;;9.18;5.15;;;37.80;39.60;;;;;;5042137;28;20210;-71
2022/07/22 09:50:50;;;;;;;6.05;4.47;;;37.90;39.70;;;;;;5042666;28;20216;-72
2022/07/22 09:53:29;;;;;;;8.65;5.00;;;38.00;39.80;;;;;;5052643;28;20233;-73
2022/07/22 09:56:17;;;;;;;9.57;4.88;;;38.10;38.80;;;;;;5045763;28;20428;-73
2022/07/22 09:58:44;;;;;;;7.50;4.63;;;38.20;38.30;;;;;;5048684;28;20665;-72
2022/07/22 10:01:40;;;;;;;8.38;4.93;;;38.30;38.10;;;;;;5043926;28;20665;-72
2022/07/22 10:04:10;;;;;;;6.88;5.03;;;38.40;37.70;;;;;;5050532;28;20663;-71
2022/07/22 10:06:40;;;;;;;8.05;4.50;;;38.40;37.30;;;;;;5046209;28;20219;-73
2022/07/22 10:09:14;;;;;;;5.22;4.72;;;38.50;38.20;;;;;;5034107;28;20206;-72
2022/07/22 10:11:45;;;;;;;10.55;4.90;;;38.50;37.40;;;;;;5039505;28;20650;-74
2022/07/22 10:14:17;;;;;;;9.90;4.68;;;38.60;36.90;;;;;;5044517;28;20215;-72
2022/07/22 10:16:52;;;;;;;7.15;4.63;;;38.70;36.60;;;;;;5048142;28;20224;-71
2022/07/22 10:19:19;;;;;;;5.35;4.85;;;38.80;36.40;;;;;;5037513;28;20214;-72
2022/07/22 10:21:47;;;;;;;5.72;4.63;;;38.80;36.80;;;;;;5043231;28;20681;-71
2022/07/22 10:24:23;;;;;;;7.43;4.53;;;38.80;36.60;;;;;;5043510;28;20394;-72
2022/07/22 10:26:56;;;;;;;4.60;4.15;;;38.80;37.40;;;;;;5040249;28;20239;-72
2022/07/22 10:29:44;;;;;;;11.05;4.80;;;38.80;35.90;;;;;;5043002;28;20307;-72
2022/07/22 10:32:15;;;;;;;5.15;4.40;;;38.90;36.40;;;;;;5039723;28;20278;-71
2022/07/22 10:34:43;;;;;;;5.90;4.75;;;39.00;35.30;;;;;;5042749;28;20309;-74
2022/07/22 10:37:35;;;;;;;5.20;4.13;;;39.00;35.00;;;;;;5045330;28;20661;-74
2022/07/22 10:40:11;;;;;;;9.27;4.63;;;39.10;35.30;;;;;;5041800;28;20233;-72
2022/07/22 10:43:06;;;;;;;7.13;3.80;;;39.20;35.40;;;;;;5041411;28;20194;-74
2022/07/22 10:45:40;;;;;;;9.85;4.57;;;39.30;34.90;;;;;;5045628;28;20206;-73
2022/07/22 10:48:09;;;;;;;5.95;4.18;;;39.30;35.00;;;;;;5041786;28;20213;-71
2022/07/22 10:50:39;;;;;;;10.85;4.20;;;39.40;33.90;;;;;;5044555;28;20514;-72
2022/07/22 10:53:09;;;;;;;5.45;4.03;;;39.50;34.30;;;;;;5042790;28;20207;-72
2022/07/22 10:55:38;;;;;;;7.15;4.13;;;39.50;33.80;;;;;;5039643;28;20219;-71
2022/07/22 10:58:33;;;;;;;6.88;3.83;;;39.60;33.10;;;;;;5037402;28;20186;-73
2022/07/22 11:01:07;;;;;;;7.38;4.60;;;39.50;32.10;;;;;;5034966;28;20229;-73
2022/07/22 11:03:36;;;;;;;9.27;4.10;;;39.60;33.20;;;;;;5043753;28;20223;-72
2022/07/22 11:06:31;;;;;;;6.95;3.85;;;39.60;32.70;;;;;;5047643;28;20206;-72
2022/07/22 11:09:03;;;;;;;10.88;4.05;;;39.60;32.60;;;;;;5043752;28;20724;-72
2022/07/22 11:11:53;;;;;;;4.57;3.08;;;39.70;31.90;;;;;;5038171;28;20194;-72
2022/07/22 11:14:26;;;;;;;6.13;3.70;;;39.90;31.50;;;;;;5030684;28;20225;-72
2022/07/22 11:16:57;;;;;;;7.93;3.47;;;40.00;31.30;;;;;;5040803;28;20333;-72
2022/07/22 11:19:27;;;;;;;4.38;3.40;;;40.00;30.90;;;;;;5042975;28;20203;-72
2022/07/22 11:22:04;;;;;;;6.88;3.85;;;40.00;30.80;;;;;;5041242;28;20208;-73
2022/07/22 11:24:33;;;;;;;4.88;3.42;;;40.10;31.40;;;;;;5039867;28;20195;-72
2022/07/22 11:27:01;;;;;;;6.40;3.80;;;40.20;31.00;;;;;;5041707;28;20629;-72
2022/07/22 11:29:42;;;;;;;3.83;3.08;;;40.30;30.90;;;;;;5042536;28;20617;-72
2022/07/22 11:32:11;;;;;;;4.28;3.50;;;40.30;31.20;;;;;;5049490;28;20272;-73
2022/07/22 11:34:42;;;;;;;6.65;3.40;;;40.30;31.50;;;;;;5047412;28;20210;-72
2022/07/22 11:37:10;;;;;;;3.88;3.30;;;40.40;31.50;;;;;;5039756;28;20218;-73
2022/07/22 11:39:38;;;;;;;8.52;3.78;;;40.50;31.40;;;;;;5037622;28;20214;-73
2022/07/22 11:42:06;;;;;;;3.83;3.53;;;40.50;31.60;;;;;;5041839;28;20203;-73
2022/07/22 11:44:36;;;;;;;3.88;3.45;;;40.50;31.60;;;;;;5046291;28;20273;-72
2022/07/22 11:47:05;;;;;;;5.15;3.60;;;40.70;31.40;;;;;;5041846;28;20195;-72
2022/07/22 11:49:35;;;;;;;3.30;3.00;;;40.70;31.70;;;;;;5043124;28;20222;-72
2022/07/22 11:52:05;;;;;;;4.90;3.35;;;40.80;31.70;;;;;;5027804;28;20203;-72
2022/07/22 11:54:32;;;;;;;8.25;3.42;;;40.70;31.80;;;;;;5040478;28;20226;-73
2022/07/22 11:57:01;;;;;;;3.17;2.78;;;40.70;31.60;;;;;;5045080;28;20545;-73
2022/07/22 11:59:29;;;;;;;6.43;3.10;;;40.70;32.00;;;;;;5049766;28;20198;-73
2022/07/22 12:01:57;;;;;;;8.18;3.70;;;40.70;32.10;;;;;;5044876;28;20190;-73
2022/07/22 12:04:26;;;;;;;4.10;2.97;;;40.80;31.10;;;;;;5042601;28;20569;-73
2022/07/22 12:06:54;;;;;;;8.05;3.30;;;40.80;31.50;;;;;;5041193;28;20203;-73
2022/07/22 12:09:30;;;;;;;4.90;3.50;;;40.80;31.30;;;;;;5043832;28;20245;-73
2022/07/22 12:11:58;;;;;;;6.93;3.70;;;40.70;31.40;;;;;;5047699;28;20206;-72
2022/07/22 12:14:31;;;;;;;5.18;3.78;;;40.70;31.60;;;;;;5049142;28;20203;-72
2022/07/22 12:17:01;;;;;;;6.93;3.83;;;40.70;31.90;;;;;;5044647;28;20231;-73
2022/07/22 12:19:32;;;;;;;4.32;3.92;;;40.70;31.80;;;;;;5043908;28;20206;-74
2022/07/22 12:22:05;;;;;;;6.00;3.58;;;40.80;31.50;;;;;;5047360;28;20203;-71
2022/07/22 12:25:01;;;;;;;6.78;4.00;;;40.80;31.50;;;;;;5047903;28;20221;-72
2022/07/22 12:27:30;;;;;;;7.72;4.22;;;40.90;31.00;;;;;;5057424;28;20309;-73
2022/07/22 12:29:58;;;;;;;6.22;3.50;;;40.90;31.10;;;;;;5044923;28;20201;-72
2022/07/22 12:32:28;;;;;;;6.38;4.20;;;40.90;30.80;;;;;;5045341;28;20204;-72
2022/07/22 12:34:59;;;;;;;4.03;3.58;;;40.80;30.80;;;;;;5043258;28;20625;-73
2022/07/22 12:37:30;;;;;;;4.43;4.03;;;40.80;30.90;;;;;;5029469;28;20682;-73
2022/07/22 12:40:04;;;;;;;6.38;3.88;;;40.80;30.60;;;;;;5046144;28;20265;-73
2022/07/22 12:42:40;;;;;;;6.28;4.03;;;40.70;31.10;;;;;;5042825;28;20199;-73
2022/07/22 12:45:10;;;;;;;7.82;3.90;;;40.70;31.30;;;;;;5042817;28;20508;-72
2022/07/22 12:47:47;;;;;;;4.22;3.92;;;40.70;30.90;;;;;;5041108;28;20202;-72
2022/07/22 12:50:32;;;;;;;10.07;4.18;;;40.70;30.60;;;;;;5078077;28;20730;-72
2022/07/22 12:53:05;;;;;;;7.85;3.92;;;40.70;30.80;;;;;;5040903;28;20226;-73
2022/07/22 12:55:47;;;;;;;10.32;4.82;;;40.60;30.50;;;;;;5033996;28;20667;-73
2022/07/22 12:58:16;;;;;;;6.20;4.55;;;40.50;30.80;;;;;;5046282;28;20227;-73
2022/07/22 13:00:49;;;;;;;8.45;4.57;;;40.50;30.80;;;;;;5042047;28;20286;-72
2022/07/22 13:03:21;;;;;;;8.98;4.60;;;40.50;31.50;;;;;;5047251;28;20198;-72
2022/07/22 13:05:58;;;;;;;4.88;4.32;;;40.50;31.40;;;;;;5050675;28;20717;-72